createdAt,value
2018-09-08T00:02:02.960Z,4.87
2018-09-08T00:04:32.123Z,3.67
2018-09-08T00:07:05.788Z,3.07
2018-09-08T00:09:34.201Z,3.47
2018-09-08T00:12:02.809Z,3.30
2018-09-08T00:14:31.241Z,4.27
2018-09-08T00:17:04.975Z,3.40
2018-09-08T00:19:38.807Z,3.77
2018-09-08T00:22:12.536Z,2.47
2018-09-08T00:24:46.431Z,3.40
2018-09-08T00:27:15.851Z,3.17
2018-09-08T00:29:48.835Z,3.23
2018-09-08T00:32:18.168Z,2.67
2018-09-08T00:34:46.598Z,3.40
2018-09-08T00:37:14.971Z,7.10
2018-09-08T00:39:44.008Z,5.37
2018-09-08T00:42:12.575Z,4.30
2018-09-08T00:44:40.947Z,4.70
2018-09-08T00:47:09.308Z,2.67
2018-09-08T00:49:38.156Z,3.40
2018-09-08T00:52:06.567Z,6.30
2018-09-08T00:54:34.932Z,5.23
2018-09-08T00:57:03.417Z,2.90
2018-09-08T00:59:31.769Z,3.50
2018-09-08T01:02:00.267Z,3.03
2018-09-08T01:04:28.633Z,4.30
2018-09-08T01:06:57.544Z,4.33
2018-09-08T01:09:26.037Z,4.13
2018-09-08T01:11:54.433Z,3.27
2018-09-08T01:14:22.808Z,3.53
2018-09-08T01:16:51.177Z,4.40
2018-09-08T01:19:19.676Z,3.60
2018-09-08T01:21:48.192Z,3.10
2018-09-08T01:24:16.575Z,4.23
2018-09-08T01:26:44.978Z,4.70
2018-09-08T01:29:13.365Z,4.63
2018-09-08T01:31:41.893Z,6.07
2018-09-08T01:34:10.377Z,3.73
2018-09-08T01:36:38.756Z,3.70
2018-09-08T01:39:07.628Z,3.40
2018-09-08T01:41:36.257Z,4.43
2018-09-08T01:44:05.271Z,4.40
2018-09-08T01:46:33.723Z,2.73
2018-09-08T01:49:02.140Z,2.87
2018-09-08T01:51:30.561Z,4.53
2018-09-08T01:53:59.123Z,3.40
2018-09-08T01:56:27.496Z,6.47
2018-09-08T01:58:55.904Z,4.77
2018-09-08T02:01:24.309Z,4.37
2018-09-08T02:03:52.677Z,3.43
2018-09-08T02:06:21.171Z,3.33
2018-09-08T02:08:49.586Z,2.77
2018-09-08T02:11:17.994Z,4.13
2018-09-08T02:13:46.348Z,2.93
2018-09-08T02:16:15.295Z,3.70
2018-09-08T02:18:43.763Z,2.57
2018-09-08T02:21:12.132Z,3.70
2018-09-08T02:23:40.612Z,3.83
2018-09-08T02:26:09.186Z,3.87
2018-09-08T02:28:37.580Z,4.27
2018-09-08T02:31:05.969Z,4.27
2018-09-08T02:33:34.493Z,3.27
2018-09-08T02:36:02.876Z,2.43
2018-09-08T02:38:32.233Z,2.63
2018-09-08T02:41:00.624Z,3.47
2018-09-08T02:43:28.991Z,3.63
2018-09-08T02:45:57.412Z,3.53
2018-09-08T02:48:26.020Z,3.43
2018-09-08T02:50:53.317Z,2.93
2018-09-08T02:53:20.611Z,2.47
2018-09-08T02:55:47.936Z,5.43
2018-09-08T02:58:15.414Z,1.87
2018-09-08T03:00:42.745Z,2.20
2018-09-08T03:03:10.076Z,3.03
2018-09-08T03:05:37.384Z,5.63
2018-09-08T03:08:04.672Z,3.57
2018-09-08T03:10:31.977Z,2.70
2018-09-08T03:12:59.272Z,2.93
2018-09-08T03:15:26.572Z,2.00
2018-09-08T03:17:53.920Z,2.87
2018-09-08T03:20:21.216Z,2.43
2018-09-08T03:22:48.523Z,1.77
2018-09-08T03:25:16.147Z,2.07
2018-09-08T03:27:43.436Z,1.77
2018-09-08T03:30:11.745Z,3.17
2018-09-08T03:32:39.100Z,2.43
2018-09-08T03:35:06.584Z,2.70
2018-09-08T03:37:33.911Z,2.93
2018-09-08T03:40:01.227Z,2.03
2018-09-08T03:42:28.534Z,1.37
2018-09-08T03:44:55.825Z,2.43
2018-09-08T03:47:23.116Z,2.20
2018-09-08T03:49:50.450Z,2.63
2018-09-08T03:52:17.791Z,1.73
2018-09-08T03:54:45.147Z,2.37
2018-09-08T03:57:12.468Z,2.37
2018-09-08T03:59:39.764Z,2.77
2018-09-08T04:02:07.053Z,1.97
2018-09-08T04:04:35.938Z,1.93
2018-09-08T04:07:04.333Z,3.10
2018-09-08T04:09:32.728Z,1.63
2018-09-08T04:12:01.104Z,2.67
2018-09-08T04:14:29.730Z,2.53
2018-09-08T04:16:58.270Z,1.40
2018-09-08T04:19:26.656Z,1.73
2018-09-08T04:21:55.031Z,1.67
2018-09-08T04:24:23.520Z,1.63
2018-09-08T04:26:52.330Z,1.77
2018-09-08T04:29:20.790Z,2.97
2018-09-08T04:31:49.391Z,1.67
2018-09-08T04:34:17.991Z,3.37
2018-09-08T04:36:46.385Z,2.97
2018-09-08T04:39:14.783Z,2.13
2018-09-08T04:41:43.201Z,2.17
2018-09-08T04:44:12.328Z,4.67
2018-09-08T04:46:40.697Z,3.63
2018-09-08T04:49:09.062Z,3.57
2018-09-08T04:51:38.244Z,2.27
2018-09-08T04:54:06.766Z,2.93
2018-09-08T04:56:35.122Z,4.40
2018-09-08T04:59:03.659Z,3.30
2018-09-08T05:01:32.396Z,3.17
2018-09-08T05:04:00.795Z,4.63
2018-09-08T05:06:29.227Z,3.23
2018-09-08T05:08:57.729Z,4.07
2018-09-08T05:11:26.085Z,2.33
2018-09-08T05:13:54.460Z,2.10
2018-09-08T05:16:22.905Z,3.77
2018-09-08T05:18:51.294Z,2.90
2018-09-08T05:21:19.828Z,4.70
2018-09-08T05:23:48.408Z,3.57
2018-09-08T05:26:16.794Z,4.57
2018-09-08T05:28:45.165Z,4.27
2018-09-08T05:31:13.538Z,4.17
2018-09-08T05:33:41.974Z,4.13
2018-09-08T05:36:10.692Z,5.90
2018-09-08T05:38:39.218Z,5.20
2018-09-08T05:41:08.272Z,3.40
2018-09-08T05:43:36.765Z,3.03
2018-09-08T05:46:05.155Z,3.30
2018-09-08T05:48:33.815Z,2.40
2018-09-08T05:51:02.217Z,2.50
2018-09-08T05:53:30.572Z,3.90
2018-09-08T05:55:58.968Z,4.40
2018-09-08T05:58:27.374Z,3.67
2018-09-08T06:00:55.762Z,5.33
2018-09-08T06:03:24.181Z,2.40
2018-09-08T06:05:52.822Z,2.47
2018-09-08T06:08:21.240Z,2.93
2018-09-08T06:10:49.628Z,3.63
2018-09-08T06:13:18.731Z,3.93
2018-09-08T06:15:47.172Z,3.77
2018-09-08T06:18:15.659Z,3.37
2018-09-08T06:20:44.325Z,3.97
2018-09-08T06:23:13.193Z,3.63
2018-09-08T06:25:41.596Z,3.30
2018-09-08T06:28:09.953Z,2.20
2018-09-08T06:30:38.536Z,5.33
2018-09-08T06:33:07.077Z,3.07
2018-09-08T06:35:35.471Z,4.37
2018-09-08T06:38:03.960Z,3.20
2018-09-08T06:40:32.415Z,3.73
2018-09-08T06:43:00.774Z,4.50
2018-09-08T06:45:29.181Z,4.13
2018-09-08T06:47:57.815Z,3.87
2018-09-08T06:50:26.364Z,4.50
2018-09-08T06:52:54.875Z,5.90
2018-09-08T06:55:23.240Z,4.40
2018-09-08T06:57:52.860Z,5.17
2018-09-08T07:00:21.492Z,3.63
2018-09-08T07:02:49.860Z,3.77
2018-09-08T07:05:18.643Z,5.87
2018-09-08T07:07:47.062Z,4.67
2018-09-08T07:10:15.857Z,5.43
2018-09-08T07:12:44.376Z,4.60
2018-09-08T07:15:13.086Z,5.10
2018-09-08T07:17:41.494Z,5.93
2018-09-08T07:20:09.964Z,4.33
2018-09-08T07:22:38.517Z,4.93
2018-09-08T07:25:08.184Z,4.83
2018-09-08T07:27:36.592Z,6.07
2018-09-08T07:30:05.552Z,4.90
2018-09-08T07:32:33.966Z,4.57
2018-09-08T07:35:02.333Z,4.50
2018-09-08T07:37:35.332Z,6.63
2018-09-08T07:40:03.960Z,6.53
2018-09-08T07:42:32.378Z,5.93
2018-09-08T07:45:01.166Z,5.57
2018-09-08T07:47:30.230Z,4.10
2018-09-08T07:49:58.808Z,5.27
2018-09-08T07:52:27.208Z,6.00
2018-09-08T07:54:55.717Z,4.73
2018-09-08T07:57:24.141Z,4.03
2018-09-08T07:59:52.734Z,5.60
2018-09-08T08:02:21.202Z,4.60
2018-09-08T08:04:50.288Z,4.33
2018-09-08T08:07:18.830Z,6.17
2018-09-08T08:09:47.244Z,6.00
2018-09-08T08:12:16.540Z,4.80
2018-09-08T08:14:44.960Z,5.07
2018-09-08T08:17:13.364Z,5.90
2018-09-08T08:19:42.429Z,4.83
2018-09-08T08:22:10.801Z,4.50
2018-09-08T08:24:39.358Z,5.50
2018-09-08T08:27:08.593Z,4.43
2018-09-08T08:29:37.200Z,4.93
2018-09-08T08:32:05.936Z,4.73
2018-09-08T08:34:34.620Z,6.47
2018-09-08T08:37:03.414Z,4.10
2018-09-08T08:39:32.432Z,5.73
2018-09-08T08:42:00.980Z,4.67
2018-09-08T08:44:29.392Z,4.63
2018-09-08T08:46:57.805Z,4.60
2018-09-08T08:49:26.204Z,3.90
2018-09-08T08:52:07.137Z,3.90
2018-09-08T08:54:46.515Z,5.37
2018-09-08T08:57:15.196Z,4.00
2018-09-08T08:59:45.143Z,3.90
2018-09-08T09:02:13.672Z,4.30
2018-09-08T09:04:42.868Z,5.13
2018-09-08T09:07:12.878Z,4.43
2018-09-08T09:09:42.389Z,5.33
2018-09-08T09:12:10.748Z,4.30
2018-09-08T09:14:39.324Z,5.53
2018-09-08T09:17:08.330Z,4.23
2018-09-08T09:19:48.256Z,4.43
2018-09-08T09:22:28.760Z,6.13
2018-09-08T09:25:03.400Z,4.60
2018-09-08T09:27:33.332Z,3.60
2018-09-08T09:30:02.117Z,3.00
2018-09-08T09:32:30.521Z,7.53
2018-09-08T09:34:58.903Z,4.63
2018-09-08T09:37:27.351Z,4.90
2018-09-08T09:39:56.628Z,5.80
2018-09-08T09:42:25.025Z,3.37
2018-09-08T09:44:53.545Z,3.67
2018-09-08T09:47:22.132Z,5.70
2018-09-08T09:49:50.555Z,4.13
2018-09-08T09:52:18.959Z,3.77
2018-09-08T09:54:47.502Z,4.83
2018-09-08T09:57:15.881Z,4.60
2018-09-08T09:59:44.361Z,5.47
2018-09-08T10:02:44.912Z,4.23
2018-09-08T10:05:18.720Z,4.83
2018-09-08T10:07:49.408Z,3.63
2018-09-08T10:10:19.455Z,4.20
2018-09-08T10:12:47.876Z,3.73
2018-09-08T10:15:16.692Z,4.70
2018-09-08T10:17:45.722Z,3.97
2018-09-08T10:20:15.567Z,4.63
2018-09-08T10:22:43.947Z,4.33
2018-09-08T10:25:19.890Z,5.37
2018-09-08T10:27:48.817Z,4.77
2018-09-08T10:30:17.932Z,4.97
2018-09-08T10:32:47.524Z,4.20
2018-09-08T10:35:16.580Z,4.77
2018-09-08T10:37:45.697Z,4.10
2018-09-08T10:40:15.772Z,4.77
2018-09-08T10:42:44.930Z,4.10
2018-09-08T10:45:13.358Z,5.47
2018-09-08T10:47:43.004Z,2.83
2018-09-08T10:50:12.145Z,3.43
2018-09-08T10:52:46.358Z,6.00
2018-09-08T10:55:14.757Z,4.83
2018-09-08T10:57:43.189Z,4.83
2018-09-08T11:00:12.469Z,3.70
2018-09-08T11:02:41.398Z,4.40
2018-09-08T11:05:10.003Z,3.60
2018-09-08T11:07:39.135Z,4.67
2018-09-08T11:10:07.603Z,3.87
2018-09-08T11:12:36.066Z,7.07
2018-09-08T11:15:04.898Z,6.50
2018-09-08T11:17:33.299Z,4.97
2018-09-08T11:20:01.781Z,3.00
2018-09-08T11:22:30.280Z,4.97
2018-09-08T11:24:58.890Z,3.97
2018-09-08T11:27:27.356Z,2.53
2018-09-08T11:29:56.248Z,3.07
2018-09-08T11:32:24.838Z,3.67
2018-09-08T11:34:53.415Z,5.17
2018-09-08T11:37:22.425Z,2.13
2018-09-08T11:39:50.869Z,3.23
2018-09-08T11:42:19.260Z,4.13
2018-09-08T11:44:48.594Z,3.70
2018-09-08T11:47:17.217Z,2.87
2018-09-08T11:49:46.781Z,4.27
2018-09-08T11:52:15.500Z,4.80
2018-09-08T11:54:43.948Z,4.07
2018-09-08T11:57:12.333Z,2.83
2018-09-08T11:59:40.808Z,3.03
2018-09-08T12:02:09.997Z,4.23
2018-09-08T12:04:38.469Z,3.33
2018-09-08T12:07:06.964Z,3.53
2018-09-08T12:09:35.845Z,2.70
2018-09-08T12:12:04.268Z,2.87
2018-09-08T12:14:32.857Z,2.60
2018-09-08T12:17:01.417Z,2.97
2018-09-08T12:19:30.467Z,2.77
2018-09-08T12:21:58.864Z,4.07
2018-09-08T12:24:27.414Z,4.37
2018-09-08T12:26:55.947Z,5.20
2018-09-08T12:29:24.352Z,5.07
2018-09-08T12:31:52.761Z,5.87
2018-09-08T12:34:21.160Z,4.20
2018-09-08T12:36:49.585Z,4.67
2018-09-08T12:39:17.996Z,4.43
2018-09-08T12:41:47.333Z,4.07
2018-09-08T12:44:15.945Z,3.60
2018-09-08T12:46:44.632Z,3.10
2018-09-08T12:49:13.199Z,6.67
2018-09-08T12:51:41.813Z,3.37
2018-09-08T12:54:10.380Z,5.60
2018-09-08T12:56:38.930Z,3.10
2018-09-08T12:59:07.397Z,4.17
2018-09-08T13:01:35.821Z,3.60
2018-09-08T13:04:04.572Z,5.07
2018-09-08T13:06:33.110Z,4.53
2018-09-08T13:09:01.761Z,4.50
2018-09-08T13:11:30.278Z,4.47
2018-09-08T13:13:59.247Z,3.50
2018-09-08T13:16:27.861Z,4.33
2018-09-08T13:18:56.894Z,4.27
2018-09-08T13:21:25.580Z,5.37
2018-09-08T13:23:54.579Z,3.20
2018-09-08T13:26:22.913Z,3.57
2018-09-08T13:28:51.408Z,4.27
2018-09-08T13:31:19.865Z,3.10
2018-09-08T13:33:48.450Z,3.70
2018-09-08T13:36:16.799Z,4.50
2018-09-08T13:38:45.549Z,5.07
2018-09-08T13:41:14.081Z,4.37
2018-09-08T13:43:42.588Z,3.47
2018-09-08T13:46:10.968Z,4.40
2018-09-08T13:48:39.520Z,4.90
2018-09-08T13:51:08.153Z,4.90
2018-09-08T13:53:37.108Z,3.43
2018-09-08T13:56:06.064Z,5.97
2018-09-08T13:58:34.614Z,3.30
2018-09-08T14:01:03.180Z,3.27
2018-09-08T14:03:32.234Z,3.47
2018-09-08T14:06:00.973Z,3.53
2018-09-08T14:08:29.524Z,3.77
2018-09-08T14:10:58.286Z,2.83
2018-09-08T14:13:26.889Z,2.57
2018-09-08T14:15:55.531Z,3.50
2018-09-08T14:18:23.960Z,3.90
2018-09-08T14:20:52.388Z,2.60
2018-09-08T14:23:20.962Z,2.70
2018-09-08T14:25:49.538Z,3.30
2018-09-08T14:28:18.089Z,3.80
2018-09-08T14:30:46.652Z,2.63
2018-09-08T14:33:15.169Z,3.40
2018-09-08T14:35:43.715Z,6.57
2018-09-08T14:38:12.442Z,3.60
2018-09-08T14:40:40.812Z,3.00
2018-09-08T14:43:09.486Z,3.20
2018-09-08T14:45:38.190Z,2.80
2018-09-08T14:48:06.628Z,2.47
2018-09-08T14:50:35.045Z,2.20
2018-09-08T14:53:03.635Z,3.53
2018-09-08T14:55:36.185Z,2.80
2018-09-08T14:58:04.565Z,4.30
2018-09-08T15:00:33.708Z,2.50
2018-09-08T15:03:02.178Z,3.50
2018-09-08T15:05:30.622Z,3.93
2018-09-08T15:07:59.196Z,2.57
2018-09-08T15:10:28.043Z,3.00
2018-09-08T15:12:56.440Z,3.17
2018-09-08T15:15:24.835Z,2.33
2018-09-08T15:17:53.548Z,2.40
2018-09-08T15:20:22.038Z,2.80
2018-09-08T15:22:50.653Z,3.13
2018-09-08T15:25:19.127Z,1.93
2018-09-08T15:27:48.291Z,2.40
2018-09-08T15:30:16.890Z,2.87
2018-09-08T15:32:45.276Z,2.30
2018-09-08T15:35:13.934Z,3.67
2018-09-08T15:37:42.539Z,3.60
2018-09-08T15:40:11.038Z,2.67
2018-09-08T15:42:39.435Z,2.33
2018-09-08T15:45:08.018Z,1.97
2018-09-08T15:47:36.533Z,2.63
2018-09-08T15:50:05.955Z,3.83
2018-09-08T15:52:34.449Z,2.57
2018-09-08T15:55:02.877Z,1.93
2018-09-08T15:57:31.253Z,4.73
2018-09-08T15:59:59.824Z,2.47
2018-09-08T16:02:28.370Z,2.70
2018-09-08T16:04:56.865Z,2.43
2018-09-08T16:07:25.385Z,2.20
2018-09-08T16:09:53.905Z,2.53
2018-09-08T16:12:23.185Z,1.97
2018-09-08T16:14:51.685Z,2.03
2018-09-08T16:17:21.417Z,2.50
2018-09-08T16:19:50.184Z,2.13
2018-09-08T16:22:18.612Z,2.83
2018-09-08T16:24:47.301Z,2.30
2018-09-08T16:27:15.912Z,3.33
2018-09-08T16:29:44.335Z,3.00
2018-09-08T16:32:12.878Z,3.17
2018-09-08T16:34:43.329Z,4.00
2018-09-08T16:37:11.987Z,3.57
2018-09-08T16:39:40.642Z,2.87
2018-09-08T16:42:09.129Z,3.07
2018-09-08T16:44:37.781Z,3.50
2018-09-08T16:47:06.253Z,3.13
2018-09-08T16:49:34.976Z,2.50
2018-09-08T16:52:03.463Z,2.83
2018-09-08T16:54:31.988Z,2.87
2018-09-08T16:57:00.430Z,2.60
2018-09-08T16:59:28.820Z,2.87
2018-09-08T17:01:57.312Z,3.27
2018-09-08T17:04:25.948Z,2.70
2018-09-08T17:06:55.165Z,2.90
2018-09-08T17:09:23.655Z,3.17
2018-09-08T17:11:52.181Z,2.83
2018-09-08T17:14:20.596Z,3.17
2018-09-08T17:16:49.081Z,4.03
2018-09-08T17:19:17.512Z,3.33
2018-09-08T17:21:45.933Z,4.33
2018-09-08T17:24:14.698Z,3.97
2018-09-08T17:26:43.112Z,4.07
2018-09-08T17:29:11.581Z,5.07
2018-09-08T17:31:40.173Z,3.40
2018-09-08T17:34:08.553Z,4.63
2018-09-08T17:36:36.963Z,3.83
2018-09-08T17:39:08.100Z,3.40
2018-09-08T17:41:36.480Z,4.40
2018-09-08T17:44:05.014Z,4.53
2018-09-08T17:46:34.320Z,4.93
2018-09-08T17:49:02.844Z,4.43
2018-09-08T17:51:31.766Z,3.60
2018-09-08T17:54:00.492Z,5.30
2018-09-08T17:56:28.858Z,4.47
2018-09-08T17:58:57.439Z,5.23
2018-09-08T18:01:25.840Z,4.67
2018-09-08T18:03:54.329Z,7.00
2018-09-08T18:06:22.869Z,4.53
2018-09-08T18:08:51.380Z,4.30
2018-09-08T18:11:20.114Z,5.73
2018-09-08T18:13:48.783Z,4.47
2018-09-08T18:16:17.239Z,4.37
2018-09-08T18:18:45.694Z,5.93
2018-09-08T18:21:14.397Z,4.23
2018-09-08T18:23:43.127Z,5.77
2018-09-08T18:26:12.314Z,5.30
2018-09-08T18:28:40.741Z,5.93
2018-09-08T18:31:09.164Z,4.43
2018-09-08T18:33:38.755Z,5.57
2018-09-08T18:36:07.431Z,6.77
2018-09-08T18:38:35.990Z,4.73
2018-09-08T18:41:04.504Z,5.20
2018-09-08T18:43:33.089Z,6.70
2018-09-08T18:46:02.126Z,5.63
2018-09-08T18:48:30.521Z,6.73
2018-09-08T18:50:58.993Z,7.20
2018-09-08T18:53:27.400Z,5.60
2018-09-08T18:55:56.252Z,4.17
2018-09-08T18:58:25.146Z,5.53
2018-09-08T19:00:53.848Z,4.93
2018-09-08T19:03:22.308Z,6.17
2018-09-08T19:05:50.780Z,5.53
2018-09-08T19:08:20.639Z,6.03
2018-09-08T19:10:49.038Z,6.63
2018-09-08T19:13:17.493Z,6.30
2018-09-08T19:15:46.230Z,6.70
2018-09-08T19:18:14.942Z,5.90
2018-09-08T19:20:43.476Z,6.03
2018-09-08T19:23:11.995Z,6.27
2018-09-08T19:25:40.849Z,6.47
2018-09-08T19:28:09.256Z,7.57
2018-09-08T19:30:38.413Z,5.10
2018-09-08T19:33:06.925Z,6.70
2018-09-08T19:35:36.665Z,6.07
2018-09-08T19:38:05.863Z,7.63
2018-09-08T19:40:40.107Z,6.37
2018-09-08T19:43:08.802Z,7.10
2018-09-08T19:45:37.564Z,5.10
2018-09-08T19:48:09.537Z,5.50
2018-09-08T19:50:38.365Z,5.03
2018-09-08T19:53:12.223Z,6.00
2018-09-08T19:55:41.194Z,6.83
2018-09-08T19:58:15.276Z,5.77
2018-09-08T20:00:44.837Z,7.10
2018-09-08T20:03:13.692Z,5.80
2018-09-08T20:05:42.267Z,6.50
2018-09-08T20:08:10.993Z,5.60
2018-09-08T20:10:39.419Z,5.93
2018-09-08T20:13:07.936Z,5.90
2018-09-08T20:15:36.345Z,5.37
2018-09-08T20:18:04.729Z,5.47
2018-09-08T20:20:33.159Z,6.53
2018-09-08T20:23:01.602Z,6.10
2018-09-08T20:25:29.993Z,6.13
2018-09-08T20:27:58.415Z,6.03
2018-09-08T20:30:27.304Z,5.27
2018-09-08T20:32:55.954Z,7.17
2018-09-08T20:35:24.565Z,6.20
2018-09-08T20:37:53.012Z,5.57
2018-09-08T20:40:21.588Z,6.47
2018-09-08T20:42:49.986Z,6.70
2018-09-08T20:45:18.376Z,5.40
2018-09-08T20:47:47.792Z,6.87
2018-09-08T20:50:16.335Z,6.60
2018-09-08T20:52:44.668Z,6.77
2018-09-08T20:55:13.030Z,6.50
2018-09-08T20:57:41.434Z,7.53
2018-09-08T21:00:10.450Z,7.80
2018-09-08T21:02:38.827Z,7.27
2018-09-08T21:05:07.508Z,6.43
2018-09-08T21:07:36.152Z,6.30
2018-09-08T21:10:04.525Z,6.57
2018-09-08T21:12:33.399Z,5.60
2018-09-08T21:15:01.787Z,4.97
2018-09-08T21:17:30.152Z,6.23
2018-09-08T21:19:58.542Z,7.03
2018-09-08T21:22:27.456Z,6.30
2018-09-08T21:24:56.232Z,6.33
2018-09-08T21:27:24.600Z,7.40
2018-09-08T21:29:52.997Z,6.80
2018-09-08T21:32:21.372Z,6.23
2018-09-08T21:34:49.954Z,6.17
2018-09-08T21:37:19.308Z,6.60
2018-09-08T21:39:47.687Z,7.83
2018-09-08T21:42:16.333Z,6.17
2018-09-08T21:44:44.769Z,6.70
2018-09-08T21:47:13.274Z,6.53
2018-09-08T21:49:41.672Z,7.03
2018-09-08T21:52:10.785Z,5.90
2018-09-08T21:54:39.181Z,6.27
2018-09-08T21:57:07.630Z,7.17
2018-09-08T21:59:36.199Z,7.00
2018-09-08T22:02:04.548Z,8.07
2018-09-08T22:04:32.938Z,6.60
2018-09-08T22:07:01.576Z,6.23
2018-09-08T22:09:30.267Z,7.20
2018-09-08T22:11:58.636Z,8.90
2018-09-08T22:14:27.175Z,9.30
2018-09-08T22:16:55.672Z,6.17
2018-09-08T22:19:24.107Z,6.97
2018-09-08T22:21:52.483Z,7.27
2018-09-08T22:24:21.020Z,7.07
2018-09-08T22:26:49.509Z,7.13
2018-09-08T22:29:18.158Z,8.13
2018-09-08T22:31:46.512Z,9.47
2018-09-08T22:34:14.988Z,9.00
2018-09-08T22:36:43.503Z,6.87
2018-09-08T22:39:12.024Z,7.73
2018-09-08T22:41:40.408Z,8.23
2018-09-08T22:44:08.929Z,7.87
2018-09-08T22:46:37.409Z,7.50
2018-09-08T22:49:06.049Z,11.23
2018-09-08T22:51:34.408Z,10.83
2018-09-08T22:54:02.807Z,12.53
2018-09-08T22:56:31.154Z,9.13
